sensor_id;sensor_type;location;lat;lon;timestamp;pressure;altitude;pressure_sealevel;temperature;humidity
20624;BME280;10471;42.736;23.346;2024-03-06T00:00:26;95300.41;;;4.32;100.00
20624;BME280;10471;42.736;23.346;2024-03-06T00:02:51;95299.69;;;4.20;100.00
20624;BME280;10471;42.736;23.346;2024-03-06T00:05:17;95309.09;;;4.21;100.00
20624;BME280;10471;42.736;23.346;2024-03-06T00:07:42;95307.81;;;4.24;100.00
20624;BME280;10471;42.736;23.346;2024-03-06T00:10:08;95299.84;;;4.30;100.00
20624;BME280;10471;42.736;23.346;2024-03-06T00:12:33;95301.94;;;4.33;100.00
20624;BME280;10471;42.736;23.346;2024-03-06T00:14:59;95302.19;;;4.32;100.00
20624;BME280;10471;42.736;23.346;2024-03-06T00:17:25;95294.69;;;4.35;100.00
20624;BME280;10471;42.736;23.346;2024-03-06T00:19:50;95295.56;;;4.41;100.00
20624;BME280;10471;42.736;23.346;2024-03-06T00:22:16;95295.56;;;4.41;100.00
20624;BME280;10471;42.736;23.346;2024-03-06T00:24:42;95298.09;;;4.52;100.00
20624;BME280;10471;42.736;23.346;2024-03-06T00:27:07;95308.53;;;4.52;100.00
20624;BME280;10471;42.736;23.346;2024-03-06T00:29:33;95296.50;;;4.51;100.00
20624;BME280;10471;42.736;23.346;2024-03-06T00:31:58;95302.22;;;4.48;100.00
20624;BME280;10471;42.736;23.346;2024-03-06T00:34:23;95301.94;;;4.33;100.00
20624;BME280;10471;42.736;23.346;2024-03-06T00:36:49;95299.41;;;4.38;100.00
20624;BME280;10471;42.736;23.346;2024-03-06T00:39:15;95300.78;;;4.41;100.00
20624;BME280;10471;42.736;23.346;2024-03-06T00:41:40;95305.44;;;4.39;100.00
20624;BME280;10471;42.736;23.346;2024-03-06T00:44:06;95308.91;;;4.44;100.00
20624;BME280;10471;42.736;23.346;2024-03-06T00:46:32;95309.78;;;4.50;100.00
20624;BME280;10471;42.736;23.346;2024-03-06T00:48:57;95308.97;;;4.49;100.00
20624;BME280;10471;42.736;23.346;2024-03-06T00:51:23;95312.41;;;4.50;100.00
20624;BME280;10471;42.736;23.346;2024-03-06T00:53:48;95308.97;;;4.49;100.00
20624;BME280;10471;42.736;23.346;2024-03-06T00:56:14;95316.72;;;4.44;100.00
20624;BME280;10471;42.736;23.346;2024-03-06T00:58:39;95306.28;;;4.44;100.00
20624;BME280;10471;42.736;23.346;2024-03-06T01:01:05;95309.31;;;4.36;100.00
20624;BME280;10471;42.736;23.346;2024-03-06T01:03:30;95303.09;;;4.37;100.00
20624;BME280;10471;42.736;23.346;2024-03-06T01:05:56;95304.09;;;4.36;100.00
20624;BME280;10471;42.736;23.346;2024-03-06T01:08:22;95304.63;;;4.38;100.00
20624;BME280;10471;42.736;23.346;2024-03-06T01:10:52;95314.53;;;4.36;100.00
20624;BME280;10471;42.736;23.346;2024-03-06T01:13:19;95303.47;;;4.29;100.00
20624;BME280;10471;42.736;23.346;2024-03-06T01:15:44;95313.91;;;4.29;100.00
20624;BME280;10471;42.736;23.346;2024-03-06T01:18:10;95314.38;;;4.26;100.00
20624;BME280;10471;42.736;23.346;2024-03-06T01:20:35;95313.56;;;4.26;100.00
20624;BME280;10471;42.736;23.346;2024-03-06T01:23:01;95317.84;;;4.32;100.00
20624;BME280;10471;42.736;23.346;2024-03-06T01:25:27;95315.97;;;4.27;100.00
20624;BME280;10471;42.736;23.346;2024-03-06T01:27:52;95319.44;;;4.16;100.00
20624;BME280;10471;42.736;23.346;2024-03-06T01:30:17;95320.38;;;4.10;100.00
20624;BME280;10471;42.736;23.346;2024-03-06T01:32:43;95319.50;;;4.21;100.00
20624;BME280;10471;42.736;23.346;2024-03-06T01:35:08;95323.22;;;4.25;100.00
20624;BME280;10471;42.736;23.346;2024-03-06T01:37:34;95309.34;;;4.20;100.00
20624;BME280;10471;42.736;23.346;2024-03-06T01:39:59;95321.03;;;4.17;100.00
20624;BME280;10471;42.736;23.346;2024-03-06T01:42:25;95320.53;;;4.20;100.00
20624;BME280;10471;42.736;23.346;2024-03-06T01:44:50;95320.22;;;4.17;100.00
20624;BME280;10471;42.736;23.346;2024-03-06T01:47:15;95321.72;;;4.13;100.00
20624;BME280;10471;42.736;23.346;2024-03-06T01:49:41;95327.09;;;4.06;100.00
20624;BME280;10471;42.736;23.346;2024-03-06T01:52:09;95323.28;;;3.97;100.00
20624;BME280;10471;42.736;23.346;2024-03-06T01:54:37;95319.25;;;3.90;100.00
20624;BME280;10471;42.736;23.346;2024-03-06T01:57:03;95326.66;;;3.82;100.00
20624;BME280;10471;42.736;23.346;2024-03-06T01:59:28;95334.06;;;3.73;100.00
20624;BME280;10471;42.736;23.346;2024-03-06T02:01:55;95332.50;;;3.72;100.00
20624;BME280;10471;42.736;23.346;2024-03-06T02:04:20;95334.69;;;3.64;100.00
20624;BME280;10471;42.736;23.346;2024-03-06T02:06:47;95348.72;;;3.63;100.00
20624;BME280;10471;42.736;23.346;2024-03-06T02:09:13;95341.81;;;3.57;100.00
20624;BME280;10471;42.736;23.346;2024-03-06T02:11:41;95342.75;;;3.51;100.00
20624;BME280;10471;42.736;23.346;2024-03-06T02:14:07;95347.09;;;3.45;100.00
20624;BME280;10471;42.736;23.346;2024-03-06T02:16:36;95345.63;;;3.38;100.00
20624;BME280;10471;42.736;23.346;2024-03-06T02:19:01;95362.50;;;3.35;100.00
20624;BME280;10471;42.736;23.346;2024-03-06T02:21:26;95366.28;;;3.28;100.00
20624;BME280;10471;42.736;23.346;2024-03-06T02:23:52;95364.13;;;3.25;100.00
20624;BME280;10471;42.736;23.346;2024-03-06T02:26:18;95357.78;;;3.21;100.00
20624;BME280;10471;42.736;23.346;2024-03-06T02:28:50;95363.66;;;3.17;100.00
20624;BME280;10471;42.736;23.346;2024-03-06T02:31:17;95361.09;;;3.05;100.00
20624;BME280;10471;42.736;23.346;2024-03-06T02:33:46;95363.16;;;3.03;100.00
20624;BME280;10471;42.736;23.346;2024-03-06T02:36:18;95363.59;;;3.00;100.00
20624;BME280;10471;42.736;23.346;2024-03-06T02:38:45;95368.34;;;2.92;100.00
20624;BME280;10471;42.736;23.346;2024-03-06T02:41:11;95371.09;;;2.85;100.00
20624;BME280;10471;42.736;23.346;2024-03-06T02:43:37;95370.06;;;2.86;100.00
20624;BME280;10471;42.736;23.346;2024-03-06T02:46:03;95363.16;;;2.80;100.00
20624;BME280;10471;42.736;23.346;2024-03-06T02:48:28;95355.38;;;2.80;100.00
20624;BME280;10471;42.736;23.346;2024-03-06T02:50:54;95361.16;;;2.82;100.00
20624;BME280;10471;42.736;23.346;2024-03-06T02:53:20;95363.63;;;2.77;100.00
20624;BME280;10471;42.736;23.346;2024-03-06T02:55:45;95363.41;;;2.79;100.00
20624;BME280;10471;42.736;23.346;2024-03-06T02:58:11;95365.19;;;2.78;100.00
20624;BME280;10471;42.736;23.346;2024-03-06T03:00:36;95363.06;;;2.75;100.00
20624;BME280;10471;42.736;23.346;2024-03-06T03:03:01;95360.47;;;2.75;100.00
20624;BME280;10471;42.736;23.346;2024-03-06T03:05:27;95354.13;;;2.71;100.00
20624;BME280;10471;42.736;23.346;2024-03-06T03:07:52;95360.91;;;2.72;100.00
20624;BME280;10471;42.736;23.346;2024-03-06T03:10:18;95359.66;;;2.75;100.00
20624;BME280;10471;42.736;23.346;2024-03-06T03:12:43;95357.28;;;2.73;100.00
20624;BME280;10471;42.736;23.346;2024-03-06T03:15:09;95364.44;;;2.66;100.00
20624;BME280;10471;42.736;23.346;2024-03-06T03:17:35;95367.69;;;2.73;100.00
20624;BME280;10471;42.736;23.346;2024-03-06T03:20:01;95365.31;;;2.72;100.00
20624;BME280;10471;42.736;23.346;2024-03-06T03:22:42;95363.50;;;2.72;100.00
20624;BME280;10471;42.736;23.346;2024-03-06T03:25:11;95364.53;;;2.71;100.00
20624;BME280;10471;42.736;23.346;2024-03-06T03:27:40;95367.13;;;2.71;100.00
20624;BME280;10471;42.736;23.346;2024-03-06T03:30:10;95367.56;;;2.68;100.00
20624;BME280;10471;42.736;23.346;2024-03-06T03:32:36;95363.50;;;2.61;100.00
20624;BME280;10471;42.736;23.346;2024-03-06T03:35:02;95373.13;;;2.60;100.00
20624;BME280;10471;42.736;23.346;2024-03-06T03:37:28;95371.53;;;2.59;100.00
20624;BME280;10471;42.736;23.346;2024-03-06T03:39:53;95373.56;;;2.58;100.00
20624;BME280;10471;42.736;23.346;2024-03-06T03:42:19;95373.56;;;2.58;100.00
20624;BME280;10471;42.736;23.346;2024-03-06T03:44:45;95370.97;;;2.58;100.00
20624;BME280;10471;42.736;23.346;2024-03-06T03:47:10;95378.44;;;2.54;100.00
20624;BME280;10471;42.736;23.346;2024-03-06T03:49:35;95382.72;;;2.60;100.00
20624;BME280;10471;42.736;23.346;2024-03-06T03:52:01;95381.16;;;2.59;100.00
20624;BME280;10471;42.736;23.346;2024-03-06T03:54:26;95381.16;;;2.59;100.00
20624;BME280;10471;42.736;23.346;2024-03-06T03:56:52;95387.16;;;2.59;100.00
20624;BME280;10471;42.736;23.346;2024-03-06T03:59:18;95389.16;;;2.58;100.00
20624;BME280;10471;42.736;23.346;2024-03-06T04:01:46;95388.72;;;2.60;100.00
20624;BME280;10471;42.736;23.346;2024-03-06T04:04:15;95384.31;;;2.61;100.00
20624;BME280;10471;42.736;23.346;2024-03-06T04:06:40;95382.53;;;2.61;100.00
20624;BME280;10471;42.736;23.346;2024-03-06T04:09:06;95382.53;;;2.61;100.00
20624;BME280;10471;42.736;23.346;2024-03-06T04:11:35;95380.34;;;2.58;100.00
20624;BME280;10471;42.736;23.346;2024-03-06T04:14:05;95382.41;;;2.57;100.00
20624;BME280;10471;42.736;23.346;2024-03-06T04:16:34;95389.75;;;2.59;100.00
20624;BME280;10471;42.736;23.346;2024-03-06T04:18:59;95388.50;;;2.62;100.00
20624;BME280;10471;42.736;23.346;2024-03-06T04:21:25;95405.47;;;2.64;100.00
20624;BME280;10471;42.736;23.346;2024-03-06T04:23:51;95402.28;;;2.62;100.00
20624;BME280;10471;42.736;23.346;2024-03-06T04:26:16;95405.94;;;2.61;100.00
20624;BME280;10471;42.736;23.346;2024-03-06T04:28:43;95407.94;;;2.59;100.00
20624;BME280;10471;42.736;23.346;2024-03-06T04:31:09;95405.34;;;2.59;100.00
20624;BME280;10471;42.736;23.346;2024-03-06T04:33:35;95415.28;;;2.62;100.00
20624;BME280;10471;42.736;23.346;2024-03-06T04:36:04;95413.03;;;2.66;100.00
20624;BME280;10471;42.736;23.346;2024-03-06T04:38:32;95415.28;;;2.62;100.00
20624;BME280;10471;42.736;23.346;2024-03-06T04:40:58;95429.28;;;2.50;100.00
20624;BME280;10471;42.736;23.346;2024-03-06T04:43:23;95420.13;;;2.48;100.00
20624;BME280;10471;42.736;23.346;2024-03-06T04:45:49;95420.13;;;2.48;100.00
20624;BME280;10471;42.736;23.346;2024-03-06T04:48:14;95422.53;;;2.60;100.00
20624;BME280;10471;42.736;23.346;2024-03-06T04:50:40;95425.81;;;2.67;100.00
20624;BME280;10471;42.736;23.346;2024-03-06T04:53:06;95420.72;;;2.72;100.00
20624;BME280;10471;42.736;23.346;2024-03-06T04:55:31;95425.84;;;2.79;100.00
20624;BME280;10471;42.736;23.346;2024-03-06T04:57:57;95434.22;;;2.92;100.00
20624;BME280;10471;42.736;23.346;2024-03-06T05:00:22;95430.56;;;2.93;100.00
20624;BME280;10471;42.736;23.346;2024-03-06T05:02:48;95424.13;;;2.96;100.00
20624;BME280;10471;42.736;23.346;2024-03-06T05:05:14;95425.63;;;3.03;100.00
20624;BME280;10471;42.736;23.346;2024-03-06T05:07:40;95429.88;;;3.09;100.00
20624;BME280;10471;42.736;23.346;2024-03-06T05:10:06;95422.75;;;3.16;100.00
20624;BME280;10471;42.736;23.346;2024-03-06T05:12:33;95421.28;;;3.20;100.00
20624;BME280;10471;42.736;23.346;2024-03-06T05:14:59;95428.75;;;3.28;100.00
20624;BME280;10471;42.736;23.346;2024-03-06T05:17:25;95424.19;;;3.35;100.00
20624;BME280;10471;42.736;23.346;2024-03-06T05:19:50;95428.38;;;3.47;100.00
20624;BME280;10471;42.736;23.346;2024-03-06T05:22:16;95424.63;;;3.55;100.00
20624;BME280;10471;42.736;23.346;2024-03-06T05:24:42;95429.69;;;3.61;100.00
20624;BME280;10471;42.736;23.346;2024-03-06T05:27:08;95429.56;;;3.68;100.00
20624;BME280;10471;42.736;23.346;2024-03-06T05:29:35;95430.31;;;3.80;100.00
20624;BME280;10471;42.736;23.346;2024-03-06T05:32:02;95436.75;;;3.88;100.00
20624;BME280;10471;42.736;23.346;2024-03-06T05:34:28;95430.59;;;3.94;100.00
20624;BME280;10471;42.736;23.346;2024-03-06T05:36:55;95432.84;;;4.02;100.00
20624;BME280;10471;42.736;23.346;2024-03-06T05:39:20;95443.91;;;4.09;100.00
20624;BME280;10471;42.736;23.346;2024-03-06T05:41:45;95441.88;;;4.11;100.00
20624;BME280;10471;42.736;23.346;2024-03-06T05:44:11;95445.19;;;4.07;100.00
20624;BME280;10471;42.736;23.346;2024-03-06T05:46:37;95442.41;;;4.13;100.00
20624;BME280;10471;42.736;23.346;2024-03-06T05:49:02;95451.91;;;4.19;100.00
20624;BME280;10471;42.736;23.346;2024-03-06T05:51:28;95453.28;;;4.22;100.00
20624;BME280;10471;42.736;23.346;2024-03-06T05:53:54;95452.59;;;4.26;100.00
20624;BME280;10471;42.736;23.346;2024-03-06T05:56:19;95462.84;;;4.33;100.00
20624;BME280;10471;42.736;23.346;2024-03-06T05:58:45;95461.13;;;4.38;100.00
20624;BME280;10471;42.736;23.346;2024-03-06T06:01:17;95463.28;;;4.41;100.00
20624;BME280;10471;42.736;23.346;2024-03-06T06:03:49;95474.81;;;4.45;100.00
20624;BME280;10471;42.736;23.346;2024-03-06T06:06:16;95476.97;;;4.48;100.00
20624;BME280;10471;42.736;23.346;2024-03-06T06:08:42;95479.66;;;4.53;100.00
20624;BME280;10471;42.736;23.346;2024-03-06T06:11:09;95477.16;;;4.58;100.00
20624;BME280;10471;42.736;23.346;2024-03-06T06:13:35;95484.56;;;4.66;100.00
20624;BME280;10471;42.736;23.346;2024-03-06T06:16:00;95476.91;;;4.76;100.00
20624;BME280;10471;42.736;23.346;2024-03-06T06:18:28;95478.09;;;4.85;100.00
20624;BME280;10471;42.736;23.346;2024-03-06T06:20:53;95472.97;;;4.90;100.00
20624;BME280;10471;42.736;23.346;2024-03-06T06:23:19;95479.53;;;4.92;100.00
20624;BME280;10471;42.736;23.346;2024-03-06T06:25:47;95473.44;;;4.87;100.00
20624;BME280;10471;42.736;23.346;2024-03-06T06:28:12;95478.66;;;4.87;100.00
20624;BME280;10471;42.736;23.346;2024-03-06T06:30:38;95479.53;;;4.76;100.00
20624;BME280;10471;42.736;23.346;2024-03-06T06:33:04;95474.25;;;4.87;100.00
20624;BME280;10471;42.736;23.346;2024-03-06T06:35:30;95478.28;;;4.95;100.00
20624;BME280;10471;42.736;23.346;2024-03-06T06:37:55;95481.38;;;5.08;100.00
20624;BME280;10471;42.736;23.346;2024-03-06T06:40:20;95480.47;;;5.19;100.00
20624;BME280;10471;42.736;23.346;2024-03-06T06:42:48;95478.81;;;5.29;100.00
20624;BME280;10471;42.736;23.346;2024-03-06T06:45:18;95484.41;;;5.38;100.00
20624;BME280;10471;42.736;23.346;2024-03-06T06:47:44;95475.13;;;5.47;100.00
20624;BME280;10471;42.736;23.346;2024-03-06T06:50:10;95477.09;;;5.56;100.00
20624;BME280;10471;42.736;23.346;2024-03-06T06:52:40;95481.91;;;5.64;100.00
20624;BME280;10471;42.736;23.346;2024-03-06T06:55:06;95480.22;;;5.75;100.00
20624;BME280;10471;42.736;23.346;2024-03-06T06:57:32;95478.22;;;5.82;100.00
20624;BME280;10471;42.736;23.346;2024-03-06T06:59:58;95473.13;;;5.91;100.00
20624;BME280;10471;42.736;23.346;2024-03-06T07:02:24;95480.25;;;5.96;100.00
20624;BME280;10471;42.736;23.346;2024-03-06T07:04:50;95480.88;;;6.03;100.00
20624;BME280;10471;42.736;23.346;2024-03-06T07:07:15;95486.63;;;6.05;100.00
20624;BME280;10471;42.736;23.346;2024-03-06T07:09:42;95484.56;;;5.86;100.00
20624;BME280;10471;42.736;23.346;2024-03-06T07:12:07;95480.81;;;5.98;100.00
20624;BME280;10471;42.736;23.346;2024-03-06T07:14:33;95484.06;;;6.10;100.00
20624;BME280;10471;42.736;23.346;2024-03-06T07:16:58;95481.56;;;6.20;100.00
20624;BME280;10471;42.736;23.346;2024-03-06T07:19:24;95478.63;;;6.38;100.00
20624;BME280;10471;42.736;23.346;2024-03-06T07:21:49;95470.84;;;6.43;100.00
20624;BME280;10471;42.736;23.346;2024-03-06T07:24:15;95474.06;;;6.50;100.00
20624;BME280;10471;42.736;23.346;2024-03-06T07:26:40;95475.72;;;6.60;100.00
20624;BME280;10471;42.736;23.346;2024-03-06T07:29:06;95486.63;;;6.52;100.00
20624;BME280;10471;42.736;23.346;2024-03-06T07:31:39;95478.09;;;6.62;100.00
20624;BME280;10471;42.736;23.346;2024-03-06T07:34:04;95480.72;;;6.62;100.00
20624;BME280;10471;42.736;23.346;2024-03-06T07:36:32;95479.00;;;6.77;100.00
20624;BME280;10471;42.736;23.346;2024-03-06T07:38:57;95484.34;;;6.87;100.00
20624;BME280;10471;42.736;23.346;2024-03-06T07:41:22;95480.00;;;6.98;100.00
20624;BME280;10471;42.736;23.346;2024-03-06T07:43:48;95474.03;;;7.07;100.00
20624;BME280;10471;42.736;23.346;2024-03-06T07:46:14;95484.81;;;7.15;100.00
20624;BME280;10471;42.736;23.346;2024-03-06T07:48:43;95478.38;;;7.23;100.00
20624;BME280;10471;42.736;23.346;2024-03-06T07:51:11;95483.16;;;7.36;100.00
20624;BME280;10471;42.736;23.346;2024-03-06T07:53:36;95482.63;;;7.39;100.00
20624;BME280;10471;42.736;23.346;2024-03-06T07:56:05;95476.97;;;7.52;100.00
20624;BME280;10471;42.736;23.346;2024-03-06T07:58:30;95474.97;;;7.69;100.00
20624;BME280;10471;42.736;23.346;2024-03-06T08:00:56;95481.88;;;7.84;100.00
20624;BME280;10471;42.736;23.346;2024-03-06T08:03:22;95480.63;;;7.97;100.00
20624;BME280;10471;42.736;23.346;2024-03-06T08:05:54;95476.72;;;8.04;100.00
20624;BME280;10471;42.736;23.346;2024-03-06T08:08:19;95480.94;;;8.10;100.00
20624;BME280;10471;42.736;23.346;2024-03-06T08:10:45;95487.84;;;8.21;100.00
20624;BME280;10471;42.736;23.346;2024-03-06T08:13:11;95487.59;;;8.28;100.00
20624;BME280;10471;42.736;23.346;2024-03-06T08:15:36;95485.28;;;8.36;100.00
20624;BME280;10471;42.736;23.346;2024-03-06T08:18:02;95486.84;;;8.32;100.00
20624;BME280;10471;42.736;23.346;2024-03-06T08:20:29;95482.03;;;8.14;100.00
20624;BME280;10471;42.736;23.346;2024-03-06T08:22:55;95486.97;;;8.06;100.00
20624;BME280;10471;42.736;23.346;2024-03-06T08:25:21;95482.59;;;8.21;100.00
20624;BME280;10471;42.736;23.346;2024-03-06T08:27:47;95479.78;;;8.43;100.00
20624;BME280;10471;42.736;23.346;2024-03-06T08:30:12;95480.63;;;8.63;100.00
20624;BME280;10471;42.736;23.346;2024-03-06T08:32:38;95482.72;;;8.71;100.00
20624;BME280;10471;42.736;23.346;2024-03-06T08:35:05;95481.94;;;8.65;100.00
20624;BME280;10471;42.736;23.346;2024-03-06T08:37:33;95485.88;;;8.63;100.00
20624;BME280;10471;42.736;23.346;2024-03-06T08:40:00;95483.75;;;8.65;100.00
20624;BME280;10471;42.736;23.346;2024-03-06T08:42:26;95480.38;;;8.69;100.00
20624;BME280;10471;42.736;23.346;2024-03-06T08:44:52;95486.69;;;8.83;100.00
20624;BME280;10471;42.736;23.346;2024-03-06T08:47:17;95482.19;;;8.74;100.00
20624;BME280;10471;42.736;23.346;2024-03-06T08:49:42;95484.88;;;8.99;100.00
20624;BME280;10471;42.736;23.346;2024-03-06T08:52:08;95472.25;;;9.11;100.00
20624;BME280;10471;42.736;23.346;2024-03-06T08:54:35;95471.19;;;9.26;100.00
20624;BME280;10471;42.736;23.346;2024-03-06T08:57:01;95484.88;;;9.28;100.00
20624;BME280;10471;42.736;23.346;2024-03-06T08:59:26;95471.44;;;9.40;100.00
20624;BME280;10471;42.736;23.346;2024-03-06T09:01:53;95479.56;;;9.53;100.00
20624;BME280;10471;42.736;23.346;2024-03-06T09:04:19;95475.63;;;9.51;100.00
20624;BME280;10471;42.736;23.346;2024-03-06T09:06:45;95477.44;;;9.70;100.00
20624;BME280;10471;42.736;23.346;2024-03-06T09:09:10;95477.69;;;9.78;100.00
20624;BME280;10471;42.736;23.346;2024-03-06T09:11:35;95480.03;;;9.85;100.00
20624;BME280;10471;42.736;23.346;2024-03-06T09:14:01;95475.28;;;9.92;100.00
20624;BME280;10471;42.736;23.346;2024-03-06T09:16:26;95471.06;;;10.06;100.00
20624;BME280;10471;42.736;23.346;2024-03-06T09:18:52;95476.25;;;10.21;100.00
20624;BME280;10471;42.736;23.346;2024-03-06T09:21:18;95472.00;;;10.30;100.00
20624;BME280;10471;42.736;23.346;2024-03-06T09:23:45;95482.47;;;10.49;100.00
20624;BME280;10471;42.736;23.346;2024-03-06T09:26:10;95468.66;;;10.67;100.00
20624;BME280;10471;42.736;23.346;2024-03-06T09:28:35;95468.47;;;10.92;100.00
20624;BME280;10471;42.736;23.346;2024-03-06T09:31:01;95467.75;;;11.20;100.00
20624;BME280;10471;42.736;23.346;2024-03-06T09:33:26;95458.03;;;11.44;100.00
20624;BME280;10471;42.736;23.346;2024-03-06T09:35:52;95461.19;;;11.46;100.00
20624;BME280;10471;42.736;23.346;2024-03-06T09:38:17;95457.03;;;11.40;100.00
20624;BME280;10471;42.736;23.346;2024-03-06T09:40:42;95456.97;;;11.45;100.00
20624;BME280;10471;42.736;23.346;2024-03-06T09:43:08;95453.75;;;11.58;100.00
20624;BME280;10471;42.736;23.346;2024-03-06T09:45:34;95447.88;;;11.61;100.00
20624;BME280;10471;42.736;23.346;2024-03-06T09:48:00;95450.38;;;11.76;100.00
20624;BME280;10471;42.736;23.346;2024-03-06T09:50:28;95446.44;;;11.96;100.00
20624;BME280;10471;42.736;23.346;2024-03-06T09:52:55;95446.84;;;12.08;100.00
20624;BME280;10471;42.736;23.346;2024-03-06T09:55:21;95441.97;;;11.97;100.00
20624;BME280;10471;42.736;23.346;2024-03-06T09:57:47;95449.50;;;12.08;100.00
20624;BME280;10471;42.736;23.346;2024-03-06T10:00:13;95449.38;;;12.18;100.00
20624;BME280;10471;42.736;23.346;2024-03-06T10:02:56;95439.00;;;12.45;100.00
20624;BME280;10471;42.736;23.346;2024-03-06T10:05:23;95438.19;;;12.63;100.00
20624;BME280;10471;42.736;23.346;2024-03-06T10:07:50;95435.22;;;12.69;100.00
20624;BME280;10471;42.736;23.346;2024-03-06T10:10:16;95434.16;;;12.89;100.00
20624;BME280;10471;42.736;23.346;2024-03-06T10:12:44;95427.00;;;13.08;100.00
20624;BME280;10471;42.736;23.346;2024-03-06T10:15:10;95419.66;;;13.18;100.00
20624;BME280;10471;42.736;23.346;2024-03-06T10:17:37;95421.78;;;13.34;100.00
20624;BME280;10471;42.736;23.346;2024-03-06T10:22:42;95413.88;;;13.61;98.30
20624;BME280;10471;42.736;23.346;2024-03-06T10:25:08;95406.22;;;13.60;97.28
20624;BME280;10471;42.736;23.346;2024-03-06T10:27:34;95415.97;;;13.64;93.94
20624;BME280;10471;42.736;23.346;2024-03-06T10:30:01;95404.59;;;13.64;93.55
20624;BME280;10471;42.736;23.346;2024-03-06T10:32:30;95405.16;;;13.61;91.20
20624;BME280;10471;42.736;23.346;2024-03-06T10:34:55;95397.13;;;13.66;93.21
20624;BME280;10471;42.736;23.346;2024-03-06T10:37:22;95402.41;;;13.52;91.12
20624;BME280;10471;42.736;23.346;2024-03-06T10:39:51;95395.06;;;13.49;89.76
20624;BME280;10471;42.736;23.346;2024-03-06T10:42:20;95397.13;;;13.66;85.39
20624;BME280;10471;42.736;23.346;2024-03-06T10:44:52;95392.25;;;13.86;87.82
20624;BME280;10471;42.736;23.346;2024-03-06T10:47:19;95387.13;;;14.16;84.72
20624;BME280;10471;42.736;23.346;2024-03-06T10:49:45;95386.91;;;14.40;82.09
20624;BME280;10471;42.736;23.346;2024-03-06T10:52:11;95382.03;;;14.68;78.57
20624;BME280;10471;42.736;23.346;2024-03-06T10:54:37;95378.88;;;14.66;76.13
20624;BME280;10471;42.736;23.346;2024-03-06T10:57:08;95378.56;;;14.46;76.89
20624;BME280;10471;42.736;23.346;2024-03-06T10:59:35;95369.84;;;14.67;77.30
20624;BME280;10471;42.736;23.346;2024-03-06T11:02:00;95360.22;;;14.93;77.89
20624;BME280;10471;42.736;23.346;2024-03-06T11:04:27;95352.59;;;15.22;72.15
20624;BME280;10471;42.736;23.346;2024-03-06T11:07:00;95348.53;;;15.46;69.85
20624;BME280;10471;42.736;23.346;2024-03-06T11:09:26;95351.50;;;15.45;67.00
20624;BME280;10471;42.736;23.346;2024-03-06T11:11:53;95349.22;;;15.30;66.84
20624;BME280;10471;42.736;23.346;2024-03-06T11:14:23;95344.69;;;15.61;67.05
20624;BME280;10471;42.736;23.346;2024-03-06T11:17:15;95336.44;;;15.71;63.43
20624;BME280;10471;42.736;23.346;2024-03-06T11:33:21;95322.94;;;15.97;61.64
20624;BME280;10471;42.736;23.346;2024-03-06T11:41:22;95324.38;;;15.65;60.52
20624;BME280;10471;42.736;23.346;2024-03-06T11:43:51;95320.41;;;15.92;61.47
20624;BME280;10471;42.736;23.346;2024-03-06T11:46:19;95314.47;;;15.95;63.06
20624;BME280;10471;42.736;23.346;2024-03-06T11:48:54;95309.28;;;15.82;59.71
20624;BME280;10471;42.736;23.346;2024-03-06T11:51:21;95310.06;;;15.82;59.36
20624;BME280;10471;42.736;23.346;2024-03-06T11:53:49;95308.50;;;15.81;57.97
20624;BME280;10471;42.736;23.346;2024-03-06T11:56:15;95317.91;;;15.87;58.71
20624;BME280;10471;42.736;23.346;2024-03-06T11:58:40;95311.06;;;16.03;59.47
20624;BME280;10471;42.736;23.346;2024-03-06T12:01:05;95297.94;;;16.15;57.72
20624;BME280;10471;42.736;23.346;2024-03-06T12:03:31;95303.59;;;16.22;56.68
20624;BME280;10471;42.736;23.346;2024-03-06T12:05:57;95293.16;;;16.34;57.57
20624;BME280;10471;42.736;23.346;2024-03-06T12:08:24;95309.44;;;16.41;55.58
20624;BME280;10471;42.736;23.346;2024-03-06T12:10:49;95299.09;;;16.48;55.44
20624;BME280;10471;42.736;23.346;2024-03-06T12:13:15;95299.09;;;16.40;54.72
20624;BME280;10471;42.736;23.346;2024-03-06T12:15:44;95294.69;;;16.52;56.66
20624;BME280;10471;42.736;23.346;2024-03-06T12:18:10;95305.25;;;16.01;66.52
20624;BME280;10471;42.736;23.346;2024-03-06T12:20:40;95295.53;;;15.80;72.10
20624;BME280;10471;42.736;23.346;2024-03-06T12:23:06;95303.09;;;15.48;75.40
20624;BME280;10471;42.736;23.346;2024-03-06T12:25:31;95297.00;;;14.95;77.78
20624;BME280;10471;42.736;23.346;2024-03-06T12:28:06;95292.03;;;15.24;81.13
20624;BME280;10471;42.736;23.346;2024-03-06T12:30:40;95287.41;;;15.38;84.32
20624;BME280;10471;42.736;23.346;2024-03-06T12:33:07;95288.59;;;15.02;82.92
20624;BME280;10471;42.736;23.346;2024-03-06T12:35:33;95282.84;;;15.08;87.14
20624;BME280;10471;42.736;23.346;2024-03-06T12:37:59;95282.00;;;14.91;80.95
20624;BME280;10471;42.736;23.346;2024-03-06T12:40:24;95290.13;;;14.72;83.75
20624;BME280;10471;42.736;23.346;2024-03-06T12:42:50;95275.84;;;14.60;84.28
20624;BME280;10471;42.736;23.346;2024-03-06T12:45:17;95285.97;;;14.58;85.76
20624;BME280;10471;42.736;23.346;2024-03-06T12:47:43;95277.97;;;14.28;87.24
20624;BME280;10471;42.736;23.346;2024-03-06T12:50:11;95282.75;;;14.26;88.17
20624;BME280;10471;42.736;23.346;2024-03-06T12:52:37;95286.03;;;14.23;89.67
20624;BME280;10471;42.736;23.346;2024-03-06T12:55:03;95282.50;;;14.14;89.90
20624;BME280;10471;42.736;23.346;2024-03-06T12:57:32;95282.38;;;13.70;92.73
20624;BME280;10471;42.736;23.346;2024-03-06T12:59:57;95277.63;;;13.80;96.52
20624;BME280;10471;42.736;23.346;2024-03-06T13:02:23;95288.00;;;13.90;95.25
20624;BME280;10471;42.736;23.346;2024-03-06T13:04:49;95283.50;;;14.04;91.99
20624;BME280;10471;42.736;23.346;2024-03-06T13:07:14;95288.94;;;14.21;92.95